PWSweather.com
Personal Weather Stations
Station Observations
KMAWOBUR2
West Side, Woburn, MA 01801

West SideWoburn, MA 01801

Lat: 42.458, Lon: -71.1955

Elevation: 160

Station Type: DAVIS/Vantage Pro2

http://pauland.net

Latest ConditionsUpdated 3:45:00 PM GMT Thursday, Nov 15, 2018
Currently Today's Max Today's Min Today's Average
Temperature 26.1°F-3.3°C 28.2°F-2.1°C 20.2°F-6.6°C 22.6°F-5.2°C
Dew Point 5.1°F-14.9°C 7.9°F-13.4°C 2.1°F-16.6°C 6.2°F-14.3°C
Winds Calm Calm 6.0 mph -9.7 kmh - - 1.8 mph 2.9 kmh
Wind Gusts 2.0 mph3.2 kmh 16.0 mph25.7 kmh - -
Humidity 40% 58% 32% 49%
Pressure 30.56 in1034.9 mb 30.59 in1035.9 mb 30.46 in1031.5 mb -
Hour Temp Dew Point Humidity Winds Wind Gusts Pressure Precip Precip Rate Daily Precip Total
03:45 PM 26.1°F-3.3°C 5.1°F-14.9°C 40% Calm Calm 2.0 mph3.2 kmh 30.56 in1034.9 mb 0.00 in0.0 mm 0.00 in0.0 mm 0.00 in0.0 mm
03:40 PM 26.1°F-3.3°C 5.1°F-14.9°C 40% 2.0 mph ENE3.2 kmh ENE 5.0 mph8.0 kmh 30.57 in1035.2 mb 0.00 in0.0 mm 0.00 in0.0 mm 0.00 in0.0 mm
03:35 PM 25.8°F-3.4°C 5.4°F-14.8°C 41% Calm Calm 4.0 mph6.4 kmh 30.57 in1035.2 mb 0.00 in0.0 mm 0.00 in0.0 mm 0.00 in0.0 mm
03:30 PM 25.7°F-3.5°C 5.8°F-14.6°C 42% 2.0 mph 3.2 kmh 4.0 mph6.4 kmh 30.57 in1035.2 mb 0.00 in0.0 mm 0.00 in0.0 mm 0.00 in0.0 mm
03:25 PM 25.6°F-3.6°C 6.2°F-14.3°C 43% 1.0 mph 1.6 kmh 3.0 mph4.8 kmh 30.55 in1034.5 mb 0.00 in0.0 mm 0.00 in0.0 mm 0.00 in0.0 mm
03:20 PM 25.3°F-3.7°C 6.5°F-14.2°C 44% 2.0 mph 3.2 kmh 3.0 mph4.8 kmh 30.55 in1034.5 mb 0.00 in0.0 mm 0.00 in0.0 mm 0.00 in0.0 mm
03:15 PM 25.1°F-3.8°C 6.3°F-14.3°C 44% 1.0 mph 1.6 kmh 4.0 mph6.4 kmh 30.55 in1034.5 mb 0.00 in0.0 mm 0.00 in0.0 mm 0.00 in0.0 mm
03:10 PM 25.0°F-3.9°C 6.2°F-14.3°C 44% Calm Calm 2.0 mph3.2 kmh 30.55 in1034.5 mb 0.00 in0.0 mm 0.00 in0.0 mm 0.00 in0.0 mm
03:05 PM 24.8°F-4.0°C 6.5°F-14.2°C 45% 1.0 mph 1.6 kmh 4.0 mph6.4 kmh 30.55 in1034.5 mb 0.00 in0.0 mm 0.00 in0.0 mm 0.00 in0.0 mm
03:00 PM 24.7°F-4.1°C 5.9°F-14.5°C 44% 2.0 mph 3.2 kmh 4.0 mph6.4 kmh 30.55 in1034.5 mb 0.00 in0.0 mm 0.00 in0.0 mm 0.00 in0.0 mm
02:55 PM 24.5°F-4.2°C 7.2°F-13.8°C 47% Calm Calm 2.0 mph3.2 kmh 30.57 in1035.2 mb 0.00 in0.0 mm 0.00 in0.0 mm 0.00 in0.0 mm
02:50 PM 24.2°F-4.3°C 6.0°F-14.4°C 45% 1.0 mph 1.6 kmh 3.0 mph4.8 kmh 30.57 in1035.2 mb 0.00 in0.0 mm 0.00 in0.0 mm 0.00 in0.0 mm
02:45 PM 24.2°F-4.3°C 6.9°F-13.9°C 47% 1.0 mph 1.6 kmh 3.0 mph4.8 kmh 30.57 in1035.2 mb 0.00 in0.0 mm 0.00 in0.0 mm 0.00 in0.0 mm
02:40 PM 24.1°F-4.4°C 6.3°F-14.3°C 46% Calm Calm 1.0 mph1.6 kmh 30.58 in1035.6 mb 0.00 in0.0 mm 0.00 in0.0 mm 0.00 in0.0 mm
02:35 PM 23.9°F-4.5°C 6.6°F-14.1°C 47% Calm Calm -- 30.58 in1035.6 mb 0.00 in0.0 mm 0.00 in0.0 mm 0.00 in0.0 mm
02:30 PM 23.8°F-4.6°C 6.1°F-14.4°C 46% Calm Calm 3.0 mph4.8 kmh 30.58 in1035.6 mb 0.00 in0.0 mm 0.00 in0.0 mm 0.00 in0.0 mm
02:25 PM 23.8°F-4.6°C 6.5°F-14.2°C 47% 1.0 mph 1.6 kmh 3.0 mph4.8 kmh 30.58 in1035.6 mb 0.00 in0.0 mm 0.00 in0.0 mm 0.00 in0.0 mm
02:20 PM 23.6°F-4.7°C 6.4°F-14.2°C 47% 1.0 mph 1.6 kmh 3.0 mph4.8 kmh 30.58 in1035.6 mb 0.00 in0.0 mm 0.00 in0.0 mm 0.00 in0.0 mm
02:15 PM 23.6°F-4.7°C 6.8°F-14.0°C 48% 1.0 mph 1.6 kmh 3.0 mph4.8 kmh 30.58 in1035.6 mb 0.00 in0.0 mm 0.00 in0.0 mm 0.00 in0.0 mm
02:10 PM 23.6°F-4.7°C 7.3°F-13.7°C 49% 1.0 mph 1.6 kmh 3.0 mph4.8 kmh 30.59 in1035.9 mb 0.00 in0.0 mm 0.00 in0.0 mm 0.00 in0.0 mm
02:05 PM 23.6°F-4.7°C 6.4°F-14.2°C 47% 1.0 mph 1.6 kmh 3.0 mph4.8 kmh 30.59 in1035.9 mb 0.00 in0.0 mm 0.00 in0.0 mm 0.00 in0.0 mm
02:00 PM 23.6°F-4.7°C 7.3°F-13.7°C 49% Calm Calm 3.0 mph4.8 kmh 30.59 in1035.9 mb 0.00 in0.0 mm 0.00 in0.0 mm 0.00 in0.0 mm
01:55 PM 23.3°F-4.8°C 7.0°F-13.9°C 49% Calm Calm 2.0 mph3.2 kmh 30.59 in1035.9 mb 0.00 in0.0 mm 0.00 in0.0 mm 0.00 in0.0 mm
01:50 PM 23.2°F-4.9°C 7.8°F-13.4°C 51% 2.0 mph 3.2 kmh 4.0 mph6.4 kmh 30.59 in1035.9 mb 0.00 in0.0 mm 0.00 in0.0 mm 0.00 in0.0 mm
01:45 PM 22.9°F-5.1°C 7.1°F-13.8°C 50% Calm Calm 2.0 mph3.2 kmh 30.59 in1035.9 mb 0.00 in0.0 mm 0.00 in0.0 mm 0.00 in0.0 mm
01:40 PM 22.7°F-5.2°C 6.9°F-13.9°C 50% 1.0 mph 1.6 kmh 3.0 mph4.8 kmh 30.59 in1035.9 mb 0.00 in0.0 mm 0.00 in0.0 mm 0.00 in0.0 mm
01:35 PM 22.7°F-5.2°C 7.3°F-13.7°C 51% 2.0 mph 3.2 kmh 5.0 mph8.0 kmh 30.59 in1035.9 mb 0.00 in0.0 mm 0.00 in0.0 mm 0.00 in0.0 mm
01:30 PM 22.7°F-5.2°C 7.7°F-13.5°C 52% 2.0 mph 3.2 kmh 3.0 mph4.8 kmh 30.59 in1035.9 mb 0.00 in0.0 mm 0.00 in0.0 mm 0.00 in0.0 mm
01:25 PM 22.5°F-5.3°C 7.6°F-13.6°C 52% 2.0 mph 3.2 kmh 3.0 mph4.8 kmh 30.59 in1035.9 mb 0.00 in0.0 mm 0.00 in0.0 mm 0.00 in0.0 mm
01:20 PM 22.4°F-5.3°C 7.0°F-13.9°C 51% 2.0 mph 3.2 kmh 4.0 mph6.4 kmh 30.59 in1035.9 mb 0.00 in0.0 mm 0.00 in0.0 mm 0.00 in0.0 mm
01:15 PM 22.2°F-5.4°C 7.3°F-13.7°C 52% 2.0 mph 3.2 kmh 4.0 mph6.4 kmh 30.59 in1035.9 mb 0.00 in0.0 mm 0.00 in0.0 mm 0.00 in0.0 mm
01:10 PM 22.2°F-5.4°C 7.3°F-13.7°C 52% 2.0 mph 3.2 kmh 4.0 mph6.4 kmh 30.59 in1035.9 mb 0.00 in0.0 mm 0.00 in0.0 mm 0.00 in0.0 mm
01:05 PM 22.1°F-5.5°C 7.2°F-13.8°C 52% 1.0 mph 1.6 kmh 3.0 mph4.8 kmh 30.59 in1035.9 mb 0.00 in0.0 mm 0.00 in0.0 mm 0.00 in0.0 mm
01:00 PM 21.9°F-5.6°C 7.0°F-13.9°C 52% 1.0 mph 1.6 kmh 3.0 mph4.8 kmh 30.59 in1035.9 mb 0.00 in0.0 mm 0.00 in0.0 mm 0.00 in0.0 mm
12:55 PM 21.8°F-5.7°C 7.3°F-13.7°C 53% 2.0 mph 3.2 kmh 4.0 mph6.4 kmh 30.58 in1035.6 mb 0.00 in0.0 mm 0.00 in0.0 mm 0.00 in0.0 mm
12:50 PM 21.6°F-5.8°C 7.6°F-13.6°C 54% 1.0 mph 1.6 kmh 3.0 mph4.8 kmh 30.58 in1035.6 mb 0.00 in0.0 mm 0.00 in0.0 mm 0.00 in0.0 mm
12:45 PM 21.6°F-5.8°C 7.1°F-13.8°C 53% 3.0 mph 4.8 kmh 6.0 mph9.7 kmh 30.58 in1035.6 mb 0.00 in0.0 mm 0.00 in0.0 mm 0.00 in0.0 mm
12:40 PM 21.4°F-5.9°C 7.4°F-13.7°C 54% 1.0 mph 1.6 kmh 3.0 mph4.8 kmh 30.58 in1035.6 mb 0.00 in0.0 mm 0.00 in0.0 mm 0.00 in0.0 mm
12:35 PM 21.3°F-5.9°C 7.7°F-13.5°C 55% 1.0 mph 1.6 kmh 3.0 mph4.8 kmh 30.58 in1035.6 mb 0.00 in0.0 mm 0.00 in0.0 mm 0.00 in0.0 mm
12:30 PM 21.1°F-6.1°C 7.5°F-13.6°C 55% 1.0 mph 1.6 kmh 3.0 mph4.8 kmh 30.58 in1035.6 mb 0.00 in0.0 mm 0.00 in0.0 mm 0.00 in0.0 mm
12:25 PM 21.0°F-6.1°C 7.4°F-13.7°C 55% 1.0 mph 1.6 kmh 3.0 mph4.8 kmh 30.57 in1035.2 mb 0.00 in0.0 mm 0.00 in0.0 mm 0.00 in0.0 mm
12:20 PM 20.8°F-6.2°C 7.2°F-13.8°C 55% 1.0 mph 1.6 kmh 4.0 mph6.4 kmh 30.57 in1035.2 mb 0.00 in0.0 mm 0.00 in0.0 mm 0.00 in0.0 mm
12:15 PM 20.8°F-6.2°C 7.6°F-13.6°C 56% Calm Calm 2.0 mph3.2 kmh 30.57 in1035.2 mb 0.00 in0.0 mm 0.00 in0.0 mm 0.00 in0.0 mm
12:10 PM 20.6°F-6.3°C 7.8°F-13.4°C 57% Calm Calm 2.0 mph3.2 kmh 30.56 in1034.9 mb 0.00 in0.0 mm 0.00 in0.0 mm 0.00 in0.0 mm
12:05 PM 20.5°F-6.4°C 7.3°F-13.7°C 56% 1.0 mph 1.6 kmh 3.0 mph4.8 kmh 30.56 in1034.9 mb 0.00 in0.0 mm 0.00 in0.0 mm 0.00 in0.0 mm
12:00 PM 20.5°F-6.4°C 7.7°F-13.5°C 57% Calm Calm -- 30.56 in1034.9 mb 0.00 in0.0 mm 0.00 in0.0 mm 0.00 in0.0 mm
11:55 AM 20.5°F-6.4°C 7.7°F-13.5°C 57% Calm Calm 2.0 mph3.2 kmh 30.57 in1035.2 mb 0.00 in0.0 mm 0.00 in0.0 mm 0.00 in0.0 mm
11:50 AM 20.5°F-6.4°C 7.3°F-13.7°C 56% Calm Calm 1.0 mph1.6 kmh 30.57 in1035.2 mb 0.00 in0.0 mm 0.00 in0.0 mm 0.00 in0.0 mm
11:45 AM 20.5°F-6.4°C 7.3°F-13.7°C 56% Calm Calm 3.0 mph4.8 kmh 30.57 in1035.2 mb 0.00 in0.0 mm 0.00 in0.0 mm 0.00 in0.0 mm
11:40 AM 20.5°F-6.4°C 7.3°F-13.7°C 56% 1.0 mph 1.6 kmh 3.0 mph4.8 kmh 30.57 in1035.2 mb 0.00 in0.0 mm 0.00 in0.0 mm 0.00 in0.0 mm
11:35 AM 20.5°F-6.4°C 7.3°F-13.7°C 56% Calm Calm -- 30.57 in1035.2 mb 0.00 in0.0 mm 0.00 in0.0 mm 0.00 in0.0 mm
11:30 AM 20.5°F-6.4°C 6.9°F-13.9°C 55% 1.0 mph 1.6 kmh 2.0 mph3.2 kmh 30.57 in1035.2 mb 0.00 in0.0 mm 0.00 in0.0 mm 0.00 in0.0 mm
11:25 AM 20.5°F-6.4°C 6.9°F-13.9°C 55% Calm Calm 2.0 mph3.2 kmh 30.57 in1035.2 mb 0.00 in0.0 mm 0.00 in0.0 mm 0.00 in0.0 mm
11:20 AM 20.5°F-6.4°C 6.9°F-13.9°C 55% Calm Calm 3.0 mph4.8 kmh 30.57 in1035.2 mb 0.00 in0.0 mm 0.00 in0.0 mm 0.00 in0.0 mm
11:15 AM 20.6°F-6.3°C 7.0°F-13.9°C 55% Calm Calm 2.0 mph3.2 kmh 30.57 in1035.2 mb 0.00 in0.0 mm 0.00 in0.0 mm 0.00 in0.0 mm
11:10 AM 20.6°F-6.3°C 7.0°F-13.9°C 55% Calm Calm 3.0 mph4.8 kmh 30.57 in1035.2 mb 0.00 in0.0 mm 0.00 in0.0 mm 0.00 in0.0 mm
11:05 AM 20.6°F-6.3°C 7.0°F-13.9°C 55% Calm Calm 2.0 mph3.2 kmh 30.57 in1035.2 mb 0.00 in0.0 mm 0.00 in0.0 mm 0.00 in0.0 mm
11:00 AM 20.6°F-6.3°C 6.6°F-14.1°C 54% Calm Calm 2.0 mph3.2 kmh 30.57 in1035.2 mb 0.00 in0.0 mm 0.00 in0.0 mm 0.00 in0.0 mm
10:55 AM 20.8°F-6.2°C 7.2°F-13.8°C 55% 1.0 mph 1.6 kmh 2.0 mph3.2 kmh 30.57 in1035.2 mb 0.00 in0.0 mm 0.00 in0.0 mm 0.00 in0.0 mm
10:50 AM 20.8°F-6.2°C 7.2°F-13.8°C 55% Calm Calm 2.0 mph3.2 kmh 30.57 in1035.2 mb 0.00 in0.0 mm 0.00 in0.0 mm 0.00 in0.0 mm
10:45 AM 20.8°F-6.2°C 7.2°F-13.8°C 55% 1.0 mph 1.6 kmh 3.0 mph4.8 kmh 30.57 in1035.2 mb 0.00 in0.0 mm 0.00 in0.0 mm 0.00 in0.0 mm
10:40 AM 20.8°F-6.2°C 7.2°F-13.8°C 55% 1.0 mph 1.6 kmh 3.0 mph4.8 kmh 30.57 in1035.2 mb 0.00 in0.0 mm 0.00 in0.0 mm 0.00 in0.0 mm
10:35 AM 20.8°F-6.2°C 6.8°F-14.0°C 54% 1.0 mph 1.6 kmh 3.0 mph4.8 kmh 30.57 in1035.2 mb 0.00 in0.0 mm 0.00 in0.0 mm 0.00 in0.0 mm
10:30 AM 20.8°F-6.2°C 6.8°F-14.0°C 54% 2.0 mph 3.2 kmh 6.0 mph9.7 kmh 30.57 in1035.2 mb 0.00 in0.0 mm 0.00 in0.0 mm 0.00 in0.0 mm
10:25 AM 20.8°F-6.2°C 6.8°F-14.0°C 54% 2.0 mph NNW3.2 kmh NNW 5.0 mph8.0 kmh 30.57 in1035.2 mb 0.00 in0.0 mm 0.00 in0.0 mm 0.00 in0.0 mm
10:20 AM 20.8°F-6.2°C 7.2°F-13.8°C 55% 1.0 mph 1.6 kmh 3.0 mph4.8 kmh 30.57 in1035.2 mb 0.00 in0.0 mm 0.00 in0.0 mm 0.00 in0.0 mm
10:15 AM 20.8°F-6.2°C 6.8°F-14.0°C 54% 2.0 mph 3.2 kmh 5.0 mph8.0 kmh 30.57 in1035.2 mb 0.00 in0.0 mm 0.00 in0.0 mm 0.00 in0.0 mm
10:10 AM 20.6°F-6.3°C 7.0°F-13.9°C 55% 2.0 mph 3.2 kmh 5.0 mph8.0 kmh 30.57 in1035.2 mb 0.00 in0.0 mm 0.00 in0.0 mm 0.00 in0.0 mm
10:05 AM 20.6°F-6.3°C 6.6°F-14.1°C 54% 2.0 mph 3.2 kmh 7.0 mph11.3 kmh 30.57 in1035.2 mb 0.00 in0.0 mm 0.00 in0.0 mm 0.00 in0.0 mm
10:00 AM 20.6°F-6.3°C 7.0°F-13.9°C 55% 1.0 mph 1.6 kmh 2.0 mph3.2 kmh 30.57 in1035.2 mb 0.00 in0.0 mm 0.00 in0.0 mm 0.00 in0.0 mm
09:55 AM 20.5°F-6.4°C 7.3°F-13.7°C 56% 1.0 mph 1.6 kmh 3.0 mph4.8 kmh 30.57 in1035.2 mb 0.00 in0.0 mm 0.00 in0.0 mm 0.00 in0.0 mm
09:50 AM 20.5°F-6.4°C 7.3°F-13.7°C 56% Calm Calm 1.0 mph1.6 kmh 30.57 in1035.2 mb 0.00 in0.0 mm 0.00 in0.0 mm 0.00 in0.0 mm
09:45 AM 20.3°F-6.5°C 7.1°F-13.8°C 56% 1.0 mph 1.6 kmh 3.0 mph4.8 kmh 30.57 in1035.2 mb 0.00 in0.0 mm 0.00 in0.0 mm 0.00 in0.0 mm
09:40 AM 20.2°F-6.6°C 7.4°F-13.7°C 57% 2.0 mph NNW3.2 kmh NNW 6.0 mph9.7 kmh 30.56 in1034.9 mb 0.00 in0.0 mm 0.00 in0.0 mm 0.00 in0.0 mm
09:35 AM 20.2°F-6.6°C 7.8°F-13.4°C 58% Calm Calm 2.0 mph3.2 kmh 30.56 in1034.9 mb 0.00 in0.0 mm 0.00 in0.0 mm 0.00 in0.0 mm
09:30 AM 20.2°F-6.6°C 7.8°F-13.4°C 58% Calm Calm 1.0 mph1.6 kmh 30.56 in1034.9 mb 0.00 in0.0 mm 0.00 in0.0 mm 0.00 in0.0 mm
09:25 AM 20.3°F-6.5°C 7.9°F-13.4°C 58% 1.0 mph NNW1.6 kmh NNW 3.0 mph4.8 kmh 30.57 in1035.2 mb 0.00 in0.0 mm 0.00 in0.0 mm 0.00 in0.0 mm
09:20 AM 20.2°F-6.6°C 7.8°F-13.4°C 58% Calm Calm -- 30.57 in1035.2 mb 0.00 in0.0 mm 0.00 in0.0 mm 0.00 in0.0 mm
09:15 AM 20.2°F-6.6°C 7.8°F-13.4°C 58% Calm Calm 1.0 mph1.6 kmh 30.57 in1035.2 mb 0.00 in0.0 mm 0.00 in0.0 mm 0.00 in0.0 mm
09:10 AM 20.2°F-6.6°C 7.4°F-13.7°C 57% Calm Calm 2.0 mph3.2 kmh 30.57 in1035.2 mb 0.00 in0.0 mm 0.00 in0.0 mm 0.00 in0.0 mm
09:05 AM 20.2°F-6.6°C 7.0°F-13.9°C 56% Calm Calm 1.0 mph1.6 kmh 30.57 in1035.2 mb 0.00 in0.0 mm 0.00 in0.0 mm 0.00 in0.0 mm
09:00 AM 20.2°F-6.6°C 7.0°F-13.9°C 56% Calm Calm 1.0 mph1.6 kmh 30.57 in1035.2 mb 0.00 in0.0 mm 0.00 in0.0 mm 0.00 in0.0 mm
08:55 AM 20.2°F-6.6°C 7.0°F-13.9°C 56% Calm Calm 2.0 mph3.2 kmh 30.57 in1035.2 mb 0.00 in0.0 mm 0.00 in0.0 mm 0.00 in0.0 mm
08:50 AM 20.3°F-6.5°C 7.1°F-13.8°C 56% Calm Calm 3.0 mph4.8 kmh 30.57 in1035.2 mb 0.00 in0.0 mm 0.00 in0.0 mm 0.00 in0.0 mm
08:45 AM 20.3°F-6.5°C 7.1°F-13.8°C 56% Calm Calm -- 30.57 in1035.2 mb 0.00 in0.0 mm 0.00 in0.0 mm 0.00 in0.0 mm
08:40 AM 20.3°F-6.5°C 7.1°F-13.8°C 56% Calm Calm 1.0 mph1.6 kmh 30.57 in1035.2 mb 0.00 in0.0 mm 0.00 in0.0 mm 0.00 in0.0 mm
08:35 AM 20.3°F-6.5°C 6.7°F-14.1°C 55% Calm Calm 2.0 mph3.2 kmh 30.57 in1035.2 mb 0.00 in0.0 mm 0.00 in0.0 mm 0.00 in0.0 mm
08:30 AM 20.3°F-6.5°C 6.7°F-14.1°C 55% Calm Calm 2.0 mph3.2 kmh 30.57 in1035.2 mb 0.00 in0.0 mm 0.00 in0.0 mm 0.00 in0.0 mm
08:25 AM 20.3°F-6.5°C 6.3°F-14.3°C 54% 1.0 mph NNW1.6 kmh NNW 4.0 mph6.4 kmh 30.57 in1035.2 mb 0.00 in0.0 mm 0.00 in0.0 mm 0.00 in0.0 mm
08:20 AM 20.5°F-6.4°C 6.5°F-14.2°C 54% Calm Calm 1.0 mph1.6 kmh 30.57 in1035.2 mb 0.00 in0.0 mm 0.00 in0.0 mm 0.00 in0.0 mm
08:15 AM 20.5°F-6.4°C 6.1°F-14.4°C 53% 1.0 mph NNW1.6 kmh NNW 3.0 mph4.8 kmh 30.57 in1035.2 mb 0.00 in0.0 mm 0.00 in0.0 mm 0.00 in0.0 mm
08:10 AM 20.5°F-6.4°C 6.1°F-14.4°C 53% Calm Calm 3.0 mph4.8 kmh 30.57 in1035.2 mb 0.00 in0.0 mm 0.00 in0.0 mm 0.00 in0.0 mm
08:05 AM 20.6°F-6.3°C 5.8°F-14.6°C 52% Calm Calm 2.0 mph3.2 kmh 30.57 in1035.2 mb 0.00 in0.0 mm 0.00 in0.0 mm 0.00 in0.0 mm
08:00 AM 20.6°F-6.3°C 5.8°F-14.6°C 52% 1.0 mph NNW1.6 kmh NNW 2.0 mph3.2 kmh 30.57 in1035.2 mb 0.00 in0.0 mm 0.00 in0.0 mm 0.00 in0.0 mm
07:55 AM 20.6°F-6.3°C 5.8°F-14.6°C 52% Calm Calm 2.0 mph3.2 kmh 30.57 in1035.2 mb 0.00 in0.0 mm 0.00 in0.0 mm 0.00 in0.0 mm
07:50 AM 20.8°F-6.2°C 6.0°F-14.4°C 52% 1.0 mph NNW1.6 kmh NNW 2.0 mph3.2 kmh 30.57 in1035.2 mb 0.00 in0.0 mm 0.00 in0.0 mm 0.00 in0.0 mm
07:45 AM 20.8°F-6.2°C 6.0°F-14.4°C 52% 1.0 mph 1.6 kmh 5.0 mph8.0 kmh 30.57 in1035.2 mb 0.00 in0.0 mm 0.00 in0.0 mm 0.00 in0.0 mm
07:40 AM 20.8°F-6.2°C 6.0°F-14.4°C 52% 2.0 mph 3.2 kmh 5.0 mph8.0 kmh 30.57 in1035.2 mb 0.00 in0.0 mm 0.00 in0.0 mm 0.00 in0.0 mm
07:35 AM 21.0°F-6.1°C 6.2°F-14.3°C 52% 1.0 mph 1.6 kmh 3.0 mph4.8 kmh 30.57 in1035.2 mb 0.00 in0.0 mm 0.00 in0.0 mm 0.00 in0.0 mm
07:30 AM 21.0°F-6.1°C 5.7°F-14.6°C 51% 1.0 mph 1.6 kmh 3.0 mph4.8 kmh 30.57 in1035.2 mb 0.00 in0.0 mm 0.00 in0.0 mm 0.00 in0.0 mm
07:25 AM 21.0°F-6.1°C 5.7°F-14.6°C 51% 2.0 mph 3.2 kmh 5.0 mph8.0 kmh 30.57 in1035.2 mb 0.00 in0.0 mm 0.00 in0.0 mm 0.00 in0.0 mm
07:20 AM 21.0°F-6.1°C 5.7°F-14.6°C 51% 1.0 mph 1.6 kmh 3.0 mph4.8 kmh 30.57 in1035.2 mb 0.00 in0.0 mm 0.00 in0.0 mm 0.00 in0.0 mm
07:15 AM 21.1°F-6.1°C 5.8°F-14.6°C 51% Calm Calm 1.0 mph1.6 kmh 30.57 in1035.2 mb 0.00 in0.0 mm 0.00 in0.0 mm 0.00 in0.0 mm
07:10 AM 21.3°F-5.9°C 6.4°F-14.2°C 52% 2.0 mph 3.2 kmh 3.0 mph4.8 kmh 30.58 in1035.6 mb 0.00 in0.0 mm 0.00 in0.0 mm 0.00 in0.0 mm
07:05 AM 21.3°F-5.9°C 6.0°F-14.4°C 51% 1.0 mph 1.6 kmh 4.0 mph6.4 kmh 30.58 in1035.6 mb 0.00 in0.0 mm 0.00 in0.0 mm 0.00 in0.0 mm
07:00 AM 21.3°F-5.9°C 6.0°F-14.4°C 51% 1.0 mph 1.6 kmh 5.0 mph8.0 kmh 30.58 in1035.6 mb 0.00 in0.0 mm 0.00 in0.0 mm 0.00 in0.0 mm
06:55 AM 21.3°F-5.9°C 6.0°F-14.4°C 51% 1.0 mph 1.6 kmh 3.0 mph4.8 kmh 30.59 in1035.9 mb 0.00 in0.0 mm 0.00 in0.0 mm 0.00 in0.0 mm
06:50 AM 21.4°F-5.9°C 6.1°F-14.4°C 51% 1.0 mph 1.6 kmh 4.0 mph6.4 kmh 30.59 in1035.9 mb 0.00 in0.0 mm 0.00 in0.0 mm 0.00 in0.0 mm
06:45 AM 21.4°F-5.9°C 6.1°F-14.4°C 51% 1.0 mph 1.6 kmh 4.0 mph6.4 kmh 30.59 in1035.9 mb 0.00 in0.0 mm 0.00 in0.0 mm 0.00 in0.0 mm
06:40 AM 21.4°F-5.9°C 6.5°F-14.2°C 52% 1.0 mph 1.6 kmh 3.0 mph4.8 kmh 30.57 in1035.2 mb 0.00 in0.0 mm 0.00 in0.0 mm 0.00 in0.0 mm
06:35 AM 21.4°F-5.9°C 6.1°F-14.4°C 51% 1.0 mph 1.6 kmh 4.0 mph6.4 kmh 30.57 in1035.2 mb 0.00 in0.0 mm 0.00 in0.0 mm 0.00 in0.0 mm
06:30 AM 21.4°F-5.9°C 6.5°F-14.2°C 52% 3.0 mph 4.8 kmh 6.0 mph9.7 kmh 30.57 in1035.2 mb 0.00 in0.0 mm 0.00 in0.0 mm 0.00 in0.0 mm
06:25 AM 21.4°F-5.9°C 6.1°F-14.4°C 51% 2.0 mph NW3.2 kmh NW 5.0 mph8.0 kmh 30.57 in1035.2 mb 0.00 in0.0 mm 0.00 in0.0 mm 0.00 in0.0 mm
06:20 AM 21.4°F-5.9°C 6.5°F-14.2°C 52% 2.0 mph NNW3.2 kmh NNW 4.0 mph6.4 kmh 30.57 in1035.2 mb 0.00 in0.0 mm 0.00 in0.0 mm 0.00 in0.0 mm
06:15 AM 21.4°F-5.9°C 6.1°F-14.4°C 51% 2.0 mph NNW3.2 kmh NNW 5.0 mph8.0 kmh 30.57 in1035.2 mb 0.00 in0.0 mm 0.00 in0.0 mm 0.00 in0.0 mm
06:10 AM 21.4°F-5.9°C 6.1°F-14.4°C 51% 2.0 mph NNW3.2 kmh NNW 6.0 mph9.7 kmh 30.55 in1034.5 mb 0.00 in0.0 mm 0.00 in0.0 mm 0.00 in0.0 mm
06:05 AM 21.4°F-5.9°C 6.1°F-14.4°C 51% 1.0 mph NNE1.6 kmh NNE 3.0 mph4.8 kmh 30.55 in1034.5 mb 0.00 in0.0 mm 0.00 in0.0 mm 0.00 in0.0 mm
06:00 AM 21.4°F-5.9°C 6.1°F-14.4°C 51% 2.0 mph NNE3.2 kmh NNE 7.0 mph11.3 kmh 30.55 in1034.5 mb 0.00 in0.0 mm 0.00 in0.0 mm 0.00 in0.0 mm
05:55 AM 21.4°F-5.9°C 5.7°F-14.6°C 50% 3.0 mph 4.8 kmh 5.0 mph8.0 kmh 30.55 in1034.5 mb 0.00 in0.0 mm 0.00 in0.0 mm 0.00 in0.0 mm
05:50 AM 21.6°F-5.8°C 5.9°F-14.5°C 50% 2.0 mph 3.2 kmh 6.0 mph9.7 kmh 30.55 in1034.5 mb 0.00 in0.0 mm 0.00 in0.0 mm 0.00 in0.0 mm
05:45 AM 21.6°F-5.8°C 5.4°F-14.8°C 49% 2.0 mph 3.2 kmh 5.0 mph8.0 kmh 30.55 in1034.5 mb 0.00 in0.0 mm 0.00 in0.0 mm 0.00 in0.0 mm
05:40 AM 21.6°F-5.8°C 5.4°F-14.8°C 49% 2.0 mph 3.2 kmh 4.0 mph6.4 kmh 30.54 in1034.2 mb 0.00 in0.0 mm 0.00 in0.0 mm 0.00 in0.0 mm
05:35 AM 21.6°F-5.8°C 5.4°F-14.8°C 49% 3.0 mph 4.8 kmh 6.0 mph9.7 kmh 30.54 in1034.2 mb 0.00 in0.0 mm 0.00 in0.0 mm 0.00 in0.0 mm
05:30 AM 21.6°F-5.8°C 5.4°F-14.8°C 49% 2.0 mph NNW3.2 kmh NNW 8.0 mph12.9 kmh 30.54 in1034.2 mb 0.00 in0.0 mm 0.00 in0.0 mm 0.00 in0.0 mm
05:25 AM 21.8°F-5.7°C 5.6°F-14.7°C 49% 3.0 mph NNE4.8 kmh NNE 7.0 mph11.3 kmh 30.55 in1034.5 mb 0.00 in0.0 mm 0.00 in0.0 mm 0.00 in0.0 mm
05:20 AM 21.8°F-5.7°C 5.6°F-14.7°C 49% 3.0 mph NNW4.8 kmh NNW 5.0 mph8.0 kmh 30.55 in1034.5 mb 0.00 in0.0 mm 0.00 in0.0 mm 0.00 in0.0 mm
05:15 AM 21.8°F-5.7°C 5.6°F-14.7°C 49% 2.0 mph NNW3.2 kmh NNW 6.0 mph9.7 kmh 30.55 in1034.5 mb 0.00 in0.0 mm 0.00 in0.0 mm 0.00 in0.0 mm
05:10 AM 21.8°F-5.7°C 5.6°F-14.7°C 49% 2.0 mph NNW3.2 kmh NNW 8.0 mph12.9 kmh 30.54 in1034.2 mb 0.00 in0.0 mm 0.00 in0.0 mm 0.00 in0.0 mm
05:05 AM 21.9°F-5.6°C 5.7°F-14.6°C 49% 2.0 mph NNW3.2 kmh NNW 5.0 mph8.0 kmh 30.54 in1034.2 mb 0.00 in0.0 mm 0.00 in0.0 mm 0.00 in0.0 mm
05:00 AM 21.9°F-5.6°C 5.3°F-14.8°C 48% 3.0 mph 4.8 kmh 6.0 mph9.7 kmh 30.54 in1034.2 mb 0.00 in0.0 mm 0.00 in0.0 mm 0.00 in0.0 mm
04:55 AM 22.1°F-5.5°C 5.0°F-15.0°C 47% 4.0 mph 6.4 kmh 8.0 mph12.9 kmh 30.54 in1034.2 mb 0.00 in0.0 mm 0.00 in0.0 mm 0.00 in0.0 mm
04:50 AM 22.1°F-5.5°C 4.5°F-15.3°C 46% 4.0 mph 6.4 kmh 9.0 mph14.5 kmh 30.54 in1034.2 mb 0.00 in0.0 mm 0.00 in0.0 mm 0.00 in0.0 mm
04:45 AM 22.2°F-5.4°C 5.1°F-14.9°C 47% 3.0 mph NNW4.8 kmh NNW 7.0 mph11.3 kmh 30.54 in1034.2 mb 0.00 in0.0 mm 0.00 in0.0 mm 0.00 in0.0 mm
04:40 AM 22.2°F-5.4°C 4.6°F-15.2°C 46% 5.0 mph 8.0 kmh 9.0 mph14.5 kmh 30.55 in1034.5 mb 0.00 in0.0 mm 0.00 in0.0 mm 0.00 in0.0 mm
04:35 AM 22.4°F-5.3°C 4.8°F-15.1°C 46% 4.0 mph NNW6.4 kmh NNW 10.0 mph16.1 kmh 30.55 in1034.5 mb 0.00 in0.0 mm 0.00 in0.0 mm 0.00 in0.0 mm
04:30 AM 22.4°F-5.3°C 4.8°F-15.1°C 46% 4.0 mph 6.4 kmh 8.0 mph12.9 kmh 30.55 in1034.5 mb 0.00 in0.0 mm 0.00 in0.0 mm 0.00 in0.0 mm
04:25 AM 22.5°F-5.3°C 4.9°F-15.1°C 46% 3.0 mph NNW4.8 kmh NNW 7.0 mph11.3 kmh 30.56 in1034.9 mb 0.00 in0.0 mm 0.00 in0.0 mm 0.00 in0.0 mm
04:20 AM 22.5°F-5.3°C 4.9°F-15.1°C 46% 3.0 mph 4.8 kmh 7.0 mph11.3 kmh 30.56 in1034.9 mb 0.00 in0.0 mm 0.00 in0.0 mm 0.00 in0.0 mm
04:15 AM 22.7°F-5.2°C 5.1°F-14.9°C 46% 4.0 mph 6.4 kmh 8.0 mph12.9 kmh 30.56 in1034.9 mb 0.00 in0.0 mm 0.00 in0.0 mm 0.00 in0.0 mm
04:10 AM 22.7°F-5.2°C 4.6°F-15.2°C 45% 4.0 mph 6.4 kmh 8.0 mph12.9 kmh 30.57 in1035.2 mb 0.00 in0.0 mm 0.00 in0.0 mm 0.00 in0.0 mm
04:05 AM 22.9°F-5.1°C 4.8°F-15.1°C 45% 5.0 mph 8.0 kmh 9.0 mph14.5 kmh 30.57 in1035.2 mb 0.00 in0.0 mm 0.00 in0.0 mm 0.00 in0.0 mm
04:00 AM 22.9°F-5.1°C 4.8°F-15.1°C 45% 3.0 mph 4.8 kmh 8.0 mph12.9 kmh 30.57 in1035.2 mb 0.00 in0.0 mm 0.00 in0.0 mm 0.00 in0.0 mm
03:55 AM 23.0°F-5.0°C 4.9°F-15.1°C 45% 3.0 mph 4.8 kmh 8.0 mph12.9 kmh 30.55 in1034.5 mb 0.00 in0.0 mm 0.00 in0.0 mm 0.00 in0.0 mm
03:50 AM 23.0°F-5.0°C 4.4°F-15.3°C 44% 5.0 mph 8.0 kmh 10.0 mph16.1 kmh 30.55 in1034.5 mb 0.00 in0.0 mm 0.00 in0.0 mm 0.00 in0.0 mm
03:45 AM 23.2°F-4.9°C 5.0°F-15.0°C 45% 4.0 mph 6.4 kmh 8.0 mph12.9 kmh 30.55 in1034.5 mb 0.00 in0.0 mm 0.00 in0.0 mm 0.00 in0.0 mm
03:40 AM 23.2°F-4.9°C 5.5°F-14.7°C 46% 3.0 mph NNE4.8 kmh NNE 5.0 mph8.0 kmh 30.54 in1034.2 mb 0.00 in0.0 mm 0.00 in0.0 mm 0.00 in0.0 mm
03:35 AM 23.3°F-4.8°C 5.1°F-14.9°C 45% 3.0 mph NW4.8 kmh NW 7.0 mph11.3 kmh 30.54 in1034.2 mb 0.00 in0.0 mm 0.00 in0.0 mm 0.00 in0.0 mm
03:30 AM 23.3°F-4.8°C 5.6°F-14.7°C 46% 3.0 mph NW4.8 kmh NW 7.0 mph11.3 kmh 30.54 in1034.2 mb 0.00 in0.0 mm 0.00 in0.0 mm 0.00 in0.0 mm
03:25 AM 23.5°F-4.7°C 5.3°F-14.8°C 45% 3.0 mph NNE4.8 kmh NNE 9.0 mph14.5 kmh 30.54 in1034.2 mb 0.00 in0.0 mm 0.00 in0.0 mm 0.00 in0.0 mm
03:20 AM 23.5°F-4.7°C 4.8°F-15.1°C 44% 4.0 mph 6.4 kmh 8.0 mph12.9 kmh 30.54 in1034.2 mb 0.00 in0.0 mm 0.00 in0.0 mm 0.00 in0.0 mm
03:15 AM 23.6°F-4.7°C 4.9°F-15.1°C 44% 5.0 mph 8.0 kmh 11.0 mph17.7 kmh 30.54 in1034.2 mb 0.00 in0.0 mm 0.00 in0.0 mm 0.00 in0.0 mm
03:10 AM 23.6°F-4.7°C 4.9°F-15.1°C 44% 5.0 mph 8.0 kmh 16.0 mph25.7 kmh 30.55 in1034.5 mb 0.00 in0.0 mm 0.00 in0.0 mm 0.00 in0.0 mm
03:05 AM 23.8°F-4.6°C 5.6°F-14.7°C 45% 5.0 mph 8.0 kmh 11.0 mph17.7 kmh 30.55 in1034.5 mb 0.00 in0.0 mm 0.00 in0.0 mm 0.00 in0.0 mm
03:00 AM 23.8°F-4.6°C 6.1°F-14.4°C 46% 4.0 mph 6.4 kmh 10.0 mph16.1 kmh 30.55 in1034.5 mb 0.00 in0.0 mm 0.00 in0.0 mm 0.00 in0.0 mm
02:55 AM 23.8°F-4.6°C 6.5°F-14.2°C 47% 3.0 mph NNW4.8 kmh NNW 7.0 mph11.3 kmh 30.54 in1034.2 mb 0.00 in0.0 mm 0.00 in0.0 mm 0.00 in0.0 mm
02:50 AM 23.8°F-4.6°C 6.5°F-14.2°C 47% 2.0 mph NNE3.2 kmh NNE 5.0 mph8.0 kmh 30.54 in1034.2 mb 0.00 in0.0 mm 0.00 in0.0 mm 0.00 in0.0 mm
02:45 AM 23.8°F-4.6°C 6.5°F-14.2°C 47% 4.0 mph NW6.4 kmh NW 11.0 mph17.7 kmh 30.54 in1034.2 mb 0.00 in0.0 mm 0.00 in0.0 mm 0.00 in0.0 mm
02:40 AM 23.8°F-4.6°C 6.5°F-14.2°C 47% 2.0 mph NW3.2 kmh NW 5.0 mph8.0 kmh 30.53 in1033.9 mb 0.00 in0.0 mm 0.00 in0.0 mm 0.00 in0.0 mm
02:35 AM 23.9°F-4.5°C 6.6°F-14.1°C 47% 4.0 mph NW6.4 kmh NW 7.0 mph11.3 kmh 30.53 in1033.9 mb 0.00 in0.0 mm 0.00 in0.0 mm 0.00 in0.0 mm
02:30 AM 23.9°F-4.5°C 7.1°F-13.8°C 48% 2.0 mph NNW3.2 kmh NNW 5.0 mph8.0 kmh 30.53 in1033.9 mb 0.00 in0.0 mm 0.00 in0.0 mm 0.00 in0.0 mm
02:25 AM 23.9°F-4.5°C 6.2°F-14.3°C 46% 3.0 mph NNE4.8 kmh NNE 7.0 mph11.3 kmh 30.52 in1033.5 mb 0.00 in0.0 mm 0.00 in0.0 mm 0.00 in0.0 mm
02:20 AM 24.1°F-4.4°C 6.3°F-14.3°C 46% 4.0 mph 6.4 kmh 9.0 mph14.5 kmh 30.52 in1033.5 mb 0.00 in0.0 mm 0.00 in0.0 mm 0.00 in0.0 mm
02:15 AM 24.1°F-4.4°C 6.3°F-14.3°C 46% 4.0 mph 6.4 kmh 8.0 mph12.9 kmh 30.52 in1033.5 mb 0.00 in0.0 mm 0.00 in0.0 mm 0.00 in0.0 mm
02:10 AM 24.2°F-4.3°C 6.4°F-14.2°C 46% 4.0 mph NE6.4 kmh NE 10.0 mph16.1 kmh 30.52 in1033.5 mb 0.00 in0.0 mm 0.00 in0.0 mm 0.00 in0.0 mm
02:05 AM 24.4°F-4.2°C 6.6°F-14.1°C 46% 4.0 mph 6.4 kmh 8.0 mph12.9 kmh 30.52 in1033.5 mb 0.00 in0.0 mm 0.00 in0.0 mm 0.00 in0.0 mm
02:00 AM 24.5°F-4.2°C 6.7°F-14.1°C 46% 4.0 mph 6.4 kmh 8.0 mph12.9 kmh 30.52 in1033.5 mb 0.00 in0.0 mm 0.00 in0.0 mm 0.00 in0.0 mm
01:55 AM 24.7°F-4.1°C 6.9°F-13.9°C 46% 2.0 mph 3.2 kmh 5.0 mph8.0 kmh 30.52 in1033.5 mb 0.00 in0.0 mm 0.00 in0.0 mm 0.00 in0.0 mm
01:50 AM 24.8°F-4.0°C 7.0°F-13.9°C 46% 2.0 mph 3.2 kmh 4.0 mph6.4 kmh 30.52 in1033.5 mb 0.00 in0.0 mm 0.00 in0.0 mm 0.00 in0.0 mm
01:45 AM 25.0°F-3.9°C 6.7°F-14.1°C 45% 2.0 mph 3.2 kmh 4.0 mph6.4 kmh 30.52 in1033.5 mb 0.00 in0.0 mm 0.00 in0.0 mm 0.00 in0.0 mm
01:40 AM 25.1°F-3.8°C 6.8°F-14.0°C 45% 3.0 mph 4.8 kmh 6.0 mph9.7 kmh 30.51 in1033.2 mb 0.00 in0.0 mm 0.00 in0.0 mm 0.00 in0.0 mm
01:35 AM 25.3°F-3.7°C 6.5°F-14.2°C 44% 3.0 mph 4.8 kmh 8.0 mph12.9 kmh 30.51 in1033.2 mb 0.00 in0.0 mm 0.00 in0.0 mm 0.00 in0.0 mm
01:30 AM 25.4°F-3.7°C 6.6°F-14.1°C 44% 3.0 mph 4.8 kmh 8.0 mph12.9 kmh 30.51 in1033.2 mb 0.00 in0.0 mm 0.00 in0.0 mm 0.00 in0.0 mm
01:25 AM 25.6°F-3.6°C 6.7°F-14.1°C 44% 2.0 mph 3.2 kmh 6.0 mph9.7 kmh 30.49 in1032.5 mb 0.00 in0.0 mm 0.00 in0.0 mm 0.00 in0.0 mm
01:20 AM 25.8°F-3.4°C 6.4°F-14.2°C 43% 3.0 mph 4.8 kmh 6.0 mph9.7 kmh 30.49 in1032.5 mb 0.00 in0.0 mm 0.00 in0.0 mm 0.00 in0.0 mm
01:15 AM 26.0°F-3.3°C 6.6°F-14.1°C 43% 3.0 mph NNE4.8 kmh NNE 5.0 mph8.0 kmh 30.49 in1032.5 mb 0.00 in0.0 mm 0.00 in0.0 mm 0.00 in0.0 mm
01:10 AM 26.3°F-3.2°C 6.4°F-14.2°C 42% 3.0 mph NNE4.8 kmh NNE 7.0 mph11.3 kmh 30.50 in1032.8 mb 0.00 in0.0 mm 0.00 in0.0 mm 0.00 in0.0 mm
01:05 AM 26.6°F-3.0°C 6.1°F-14.4°C 41% 2.0 mph 3.2 kmh 8.0 mph12.9 kmh 30.50 in1032.8 mb 0.00 in0.0 mm 0.00 in0.0 mm 0.00 in0.0 mm
01:00 AM 26.7°F-2.9°C 5.7°F-14.6°C 40% 3.0 mph NNE4.8 kmh NNE 8.0 mph12.9 kmh 30.50 in1032.8 mb 0.00 in0.0 mm 0.00 in0.0 mm 0.00 in0.0 mm
12:55 AM 26.9°F-2.8°C 5.3°F-14.8°C 39% 3.0 mph NNW4.8 kmh NNW 8.0 mph12.9 kmh 30.49 in1032.5 mb 0.00 in0.0 mm 0.00 in0.0 mm 0.00 in0.0 mm
12:50 AM 27.0°F-2.8°C 4.2°F-15.4°C 37% 5.0 mph 8.0 kmh 8.0 mph12.9 kmh 30.49 in1032.5 mb 0.00 in0.0 mm 0.00 in0.0 mm 0.00 in0.0 mm
12:45 AM 27.2°F-2.7°C 3.8°F-15.7°C 36% 3.0 mph NNE4.8 kmh NNE 6.0 mph9.7 kmh 30.49 in1032.5 mb 0.00 in0.0 mm 0.00 in0.0 mm 0.00 in0.0 mm
12:40 AM 27.3°F-2.6°C 3.9°F-15.6°C 36% 3.0 mph NNW4.8 kmh NNW 10.0 mph16.1 kmh 30.49 in1032.5 mb 0.00 in0.0 mm 0.00 in0.0 mm 0.00 in0.0 mm
12:35 AM 27.5°F-2.5°C 3.5°F-15.8°C 35% 3.0 mph NNW4.8 kmh NNW 8.0 mph12.9 kmh 30.49 in1032.5 mb 0.00 in0.0 mm 0.00 in0.0 mm 0.00 in0.0 mm
12:30 AM 27.6°F-2.4°C 2.9°F-16.2°C 34% 2.0 mph 3.2 kmh 4.0 mph6.4 kmh 30.49 in1032.5 mb 0.00 in0.0 mm 0.00 in0.0 mm 0.00 in0.0 mm
12:25 AM 27.8°F-2.3°C 2.5°F-16.4°C 33% 4.0 mph 6.4 kmh 8.0 mph12.9 kmh 30.48 in1032.2 mb 0.00 in0.0 mm 0.00 in0.0 mm 0.00 in0.0 mm
12:20 AM 27.8°F-2.3°C 2.5°F-16.4°C 33% 5.0 mph 8.0 kmh 11.0 mph17.7 kmh 30.48 in1032.2 mb 0.00 in0.0 mm 0.00 in0.0 mm 0.00 in0.0 mm
12:15 AM 27.9°F-2.3°C 2.6°F-16.3°C 33% 3.0 mph 4.8 kmh 9.0 mph14.5 kmh 30.48 in1032.2 mb 0.00 in0.0 mm 0.00 in0.0 mm 0.00 in0.0 mm
12:10 AM 28.1°F-2.2°C 2.7°F-16.3°C 33% 4.0 mph NNE6.4 kmh NNE 10.0 mph16.1 kmh 30.46 in1031.5 mb 0.00 in0.0 mm 0.00 in0.0 mm 0.00 in0.0 mm
12:05 AM 28.1°F-2.2°C 2.1°F-16.6°C 32% 4.0 mph 6.4 kmh 12.0 mph19.3 kmh 30.46 in1031.5 mb 0.00 in0.0 mm 0.00 in0.0 mm 0.00 in0.0 mm
12:00 AM 28.2°F-2.1°C 2.2°F-16.6°C 32% 6.0 mph 9.7 kmh 15.0 mph24.1 kmh 30.46 in1031.5 mb 0.00 in0.0 mm 0.00 in0.0 mm 0.00 in0.0 mm